createdAt,value
2024-03-12T00:01:57.429Z,7.53
2024-03-12T00:07:02.997Z,7.43
2024-03-12T00:12:07.001Z,7.32
2024-03-12T00:17:09.519Z,7.47
2024-03-12T00:22:12.648Z,7.41
2024-03-12T00:27:15.222Z,7.36
2024-03-12T00:32:20.109Z,7.27
2024-03-12T00:37:22.322Z,7.17
2024-03-12T00:42:24.516Z,7.24
2024-03-12T00:47:26.736Z,7.11
2024-03-12T00:52:30.397Z,7.02
2024-03-12T00:57:35.479Z,7.00
2024-03-12T01:02:38.905Z,6.98
2024-03-12T01:07:41.110Z,7.04
2024-03-12T01:12:44.798Z,7.11
2024-03-12T01:17:47.725Z,7.03
2024-03-12T01:22:53.501Z,6.94
2024-03-12T01:28:00.412Z,6.82
2024-03-12T01:33:04.305Z,6.81
2024-03-12T01:38:06.704Z,6.74
2024-03-12T01:43:11.605Z,6.67
2024-03-12T01:48:13.856Z,6.36
2024-03-12T01:53:16.734Z,6.22
2024-03-12T01:58:19.930Z,6.12
2024-03-12T02:03:22.781Z,6.06
2024-03-12T02:08:25.935Z,6.13
2024-03-12T02:13:28.236Z,6.12
2024-03-12T02:18:30.823Z,6.12
2024-03-12T02:23:39.984Z,6.13
2024-03-12T02:28:42.819Z,6.01
2024-03-12T02:33:44.830Z,5.91
2024-03-12T02:38:47.466Z,5.81
2024-03-12T02:43:49.750Z,5.88
2024-03-12T02:48:53.413Z,5.83
2024-03-12T02:53:56.186Z,5.79
2024-03-12T02:58:58.514Z,5.67
2024-03-12T03:04:01.289Z,5.65
2024-03-12T03:09:06.769Z,5.68
2024-03-12T03:14:08.887Z,5.63
2024-03-12T03:19:11.829Z,5.58
2024-03-12T03:24:15.302Z,5.58
2024-03-12T03:29:17.607Z,5.50
2024-03-12T03:34:19.818Z,5.40
2024-03-12T03:39:22.302Z,5.45
2024-03-12T03:44:24.621Z,5.34
2024-03-12T03:49:27.185Z,5.29
2024-03-12T03:54:30.037Z,5.24
2024-03-12T03:59:33.169Z,5.16
2024-03-12T04:04:35.907Z,5.14
2024-03-12T04:09:39.068Z,5.16
2024-03-12T04:14:43.459Z,5.20
2024-03-12T04:19:49.180Z,5.14
2024-03-12T04:24:51.821Z,5.15
2024-03-12T04:29:54.334Z,5.12
2024-03-12T04:34:56.629Z,5.08
2024-03-12T04:40:00.559Z,5.09
2024-03-12T04:45:02.970Z,5.08
2024-03-12T04:50:06.060Z,5.00
2024-03-12T04:55:09.133Z,4.93
2024-03-12T05:00:21.155Z,4.90
2024-03-12T05:05:25.038Z,4.88
2024-03-12T05:10:28.731Z,4.85
2024-03-12T05:15:31.471Z,4.82
2024-03-12T05:20:37.722Z,4.87
2024-03-12T05:25:43.717Z,4.87
2024-03-12T05:30:45.712Z,4.88
2024-03-12T05:35:52.732Z,4.89
2024-03-12T05:40:58.986Z,4.88
2024-03-12T05:46:20.186Z,4.86
2024-03-12T05:51:23.114Z,4.82
2024-03-12T05:56:25.299Z,4.82
2024-03-12T06:01:28.395Z,4.76
2024-03-12T06:06:34.043Z,4.71
2024-03-12T06:11:36.581Z,4.74
2024-03-12T06:16:38.986Z,4.73
2024-03-12T06:21:41.568Z,4.71
2024-03-12T06:26:43.876Z,4.71
2024-03-12T06:31:46.774Z,4.66
2024-03-12T06:36:51.017Z,4.67
2024-03-12T06:41:53.463Z,4.70
2024-03-12T06:46:56.117Z,4.71
2024-03-12T06:51:58.141Z,4.72
2024-03-12T06:57:08.819Z,4.71
2024-03-12T07:02:12.936Z,4.70
2024-03-12T07:07:19.717Z,4.72
2024-03-12T07:12:21.913Z,4.72
2024-03-12T07:17:24.306Z,4.76
2024-03-12T07:22:26.682Z,4.79
2024-03-12T07:27:29.484Z,4.88
2024-03-12T07:32:31.827Z,4.98
2024-03-12T07:37:43.286Z,5.02
2024-03-12T07:42:45.772Z,5.09
2024-03-12T07:47:48.195Z,5.20
2024-03-12T07:52:50.246Z,5.30
2024-03-12T07:57:52.809Z,5.43
2024-03-12T08:02:54.807Z,5.53
2024-03-12T08:07:57.285Z,5.67
2024-03-12T08:13:00.463Z,5.85
2024-03-12T08:18:12.659Z,6.03
2024-03-12T08:23:21.068Z,6.19
2024-03-12T08:28:24.063Z,6.34
2024-03-12T08:33:26.736Z,6.53
2024-03-12T08:38:30.204Z,6.70
2024-03-12T08:43:32.690Z,6.96
2024-03-12T08:48:36.049Z,7.19
2024-03-12T08:53:38.500Z,7.52
2024-03-12T08:58:40.834Z,7.89
2024-03-12T09:03:46.628Z,8.28
2024-03-12T09:08:50.984Z,8.72
2024-03-12T09:13:53.129Z,9.53
2024-03-12T09:18:56.034Z,10.92
2024-03-12T09:24:02.162Z,12.40
2024-03-12T09:29:07.259Z,13.50
2024-03-12T09:34:10.775Z,14.16
2024-03-12T09:39:13.521Z,14.45
2024-03-12T09:44:16.903Z,14.99
2024-03-12T09:49:22.255Z,15.63
2024-03-12T09:54:25.006Z,16.04
2024-03-12T09:59:26.999Z,15.86
2024-03-12T10:04:29.875Z,16.06
2024-03-12T10:09:32.409Z,16.60
2024-03-12T10:14:35.494Z,16.83
2024-03-12T10:19:38.310Z,17.05
2024-03-12T10:24:40.567Z,16.28
2024-03-12T10:29:43.458Z,16.60
2024-03-12T10:34:46.494Z,17.15
2024-03-12T10:39:49.257Z,17.20
2024-03-12T10:44:51.559Z,17.54
2024-03-12T10:49:54.092Z,17.70
2024-03-12T10:55:05.758Z,17.70
2024-03-12T11:00:13.782Z,17.51
2024-03-12T11:05:18.782Z,17.96
2024-03-12T11:10:21.635Z,17.83
2024-03-12T11:15:27.105Z,17.74
2024-03-12T11:20:30.330Z,18.18
2024-03-12T11:25:40.170Z,18.43
2024-03-12T11:30:44.046Z,18.35
2024-03-12T11:35:47.948Z,17.42
2024-03-12T11:40:52.411Z,16.93
2024-03-12T11:45:56.103Z,16.58
2024-03-12T11:51:00.594Z,16.28
2024-03-12T11:56:26.279Z,15.95
2024-03-12T12:01:36.067Z,15.93
2024-03-12T12:06:38.979Z,15.38
2024-03-12T12:11:41.958Z,15.70
2024-03-12T12:16:44.418Z,15.59
2024-03-12T12:21:46.908Z,15.57
2024-03-12T12:26:49.130Z,15.54
2024-03-12T12:31:53.209Z,15.36
2024-03-12T12:36:55.769Z,15.18
2024-03-12T12:41:59.524Z,15.11
2024-03-12T12:47:04.866Z,15.33
2024-03-12T12:52:08.530Z,15.16
2024-03-12T12:57:12.245Z,15.22
2024-03-12T13:02:16.152Z,15.36
2024-03-12T13:07:31.533Z,15.12
2024-03-12T13:12:34.738Z,15.22
2024-03-12T13:17:37.461Z,15.18
2024-03-12T13:22:40.831Z,15.29
2024-03-12T13:27:47.050Z,15.32
2024-03-12T13:32:50.180Z,15.26
2024-03-12T13:37:52.907Z,15.29
2024-03-12T13:42:55.726Z,15.31
2024-03-12T13:47:58.802Z,15.23
2024-03-12T13:53:02.900Z,15.45
2024-03-12T13:58:06.153Z,15.51
2024-03-12T14:03:11.486Z,15.43
2024-03-12T14:08:17.902Z,15.66
2024-03-12T14:13:20.569Z,15.80
2024-03-12T14:18:24.944Z,15.76
2024-03-12T14:23:27.839Z,15.82
2024-03-12T14:28:31.186Z,15.79
2024-03-12T14:33:35.025Z,15.66
2024-03-12T14:38:37.882Z,16.03
2024-03-12T14:43:40.315Z,16.04
2024-03-12T14:48:42.868Z,16.05
2024-03-12T14:53:45.506Z,16.15
2024-03-12T14:58:48.306Z,16.10
2024-03-12T15:03:52.558Z,16.13
2024-03-12T15:08:57.330Z,16.13
2024-03-12T15:13:59.852Z,16.29
2024-03-12T15:19:02.475Z,16.15
2024-03-12T15:24:06.027Z,16.17
2024-03-12T15:29:47.072Z,16.21
2024-03-12T15:35:18.939Z,16.09
2024-03-12T15:40:56.420Z,16.14
2024-03-12T15:46:33.260Z,16.20
2024-03-12T15:52:09.367Z,16.32
2024-03-12T15:57:47.337Z,16.36
2024-03-12T16:03:23.232Z,16.37
2024-03-12T16:09:01.427Z,16.20
2024-03-12T16:14:38.820Z,16.15
2024-03-12T16:19:54.150Z,16.11
2024-03-12T16:24:56.481Z,16.09
2024-03-12T16:29:58.907Z,16.00
2024-03-12T16:35:04.598Z,15.93
2024-03-12T16:40:10.682Z,15.90
2024-03-12T16:45:14.757Z,15.89
2024-03-12T16:50:17.969Z,15.88
2024-03-12T16:55:20.613Z,15.83
2024-03-12T17:00:23.112Z,15.69
2024-03-12T17:05:26.251Z,15.58
2024-03-12T17:10:29.027Z,15.53
2024-03-12T17:15:32.685Z,15.41
2024-03-12T17:20:35.633Z,15.34
2024-03-12T17:25:39.645Z,15.23
2024-03-12T17:30:43.030Z,15.11
2024-03-12T17:35:45.518Z,14.95
2024-03-12T17:41:10.501Z,14.77
2024-03-12T17:46:46.462Z,14.76
2024-03-12T17:52:03.352Z,14.61
2024-03-12T17:57:06.761Z,14.46
2024-03-12T18:02:11.510Z,14.28
2024-03-12T18:07:27.231Z,14.24
2024-03-12T18:12:29.542Z,14.16
2024-03-12T18:17:32.217Z,13.96
2024-03-12T18:22:35.854Z,13.88
2024-03-12T18:27:39.166Z,13.72
2024-03-12T18:32:42.273Z,13.53
2024-03-12T18:37:46.425Z,13.44
2024-03-12T18:42:49.710Z,13.38
2024-03-12T18:47:57.598Z,13.27
2024-03-12T18:53:00.014Z,13.07
2024-03-12T18:58:02.492Z,12.98
2024-03-12T19:03:06.724Z,12.97
2024-03-12T19:08:12.319Z,12.86
2024-03-12T19:13:16.743Z,12.73
2024-03-12T19:18:21.667Z,12.60
2024-03-12T19:23:26.314Z,12.46
2024-03-12T19:28:28.681Z,12.42
2024-03-12T19:33:34.433Z,12.36
2024-03-12T19:38:36.888Z,12.30
2024-03-12T19:43:39.886Z,12.16
2024-03-12T19:48:43.354Z,12.07
2024-03-12T19:53:45.635Z,12.07
2024-03-12T19:58:48.525Z,11.99
2024-03-12T20:03:51.068Z,11.86
2024-03-12T20:08:53.570Z,11.84
2024-03-12T20:13:56.673Z,11.79
2024-03-12T20:18:59.038Z,11.70
2024-03-12T20:24:01.178Z,11.61
2024-03-12T20:29:03.323Z,11.52
2024-03-12T20:34:09.893Z,11.45
2024-03-12T20:39:13.711Z,11.40
2024-03-12T20:44:15.845Z,11.33
2024-03-12T20:49:18.159Z,11.23
2024-03-12T20:54:21.395Z,11.17
2024-03-12T20:59:24.981Z,11.07
2024-03-12T21:04:27.535Z,10.97
2024-03-12T21:09:29.802Z,10.92
2024-03-12T21:14:32.704Z,10.90
2024-03-12T21:19:35.204Z,10.82
2024-03-12T21:24:37.755Z,10.79
2024-03-12T21:29:43.456Z,10.73
2024-03-12T21:34:47.477Z,10.64
2024-03-12T21:39:50.166Z,10.58
2024-03-12T21:44:55.207Z,10.50
2024-03-12T21:49:57.651Z,10.48
2024-03-12T21:55:00.965Z,10.41
2024-03-12T22:00:11.846Z,10.29
2024-03-12T22:05:15.990Z,10.31
2024-03-12T22:10:18.424Z,10.21
2024-03-12T22:15:20.881Z,10.21
2024-03-12T22:20:23.559Z,10.16
2024-03-12T22:25:26.053Z,10.08
2024-03-12T22:30:29.470Z,10.07
2024-03-12T22:35:31.495Z,9.97
2024-03-12T22:40:35.411Z,9.91
2024-03-12T22:45:37.933Z,9.88
2024-03-12T22:50:41.460Z,9.74
2024-03-12T22:55:44.278Z,9.67
2024-03-12T23:00:48.350Z,9.62
2024-03-12T23:05:50.696Z,9.59
2024-03-12T23:10:53.352Z,9.51
2024-03-12T23:15:55.619Z,9.52
2024-03-12T23:20:58.191Z,9.44
2024-03-12T23:26:03.116Z,9.37
2024-03-12T23:31:05.512Z,9.26
2024-03-12T23:36:08.869Z,9.27
2024-03-12T23:41:13.088Z,9.19
2024-03-12T23:46:16.968Z,9.18
2024-03-12T23:51:19.156Z,9.21
2024-03-12T23:56:25.890Z,9.14
